createdAt,value
2019-03-30T01:03:57.013Z,12.22
2019-03-30T01:08:58.382Z,12.20
2019-03-30T01:13:59.728Z,12.14
2019-03-30T01:19:01.055Z,12.08
2019-03-30T01:24:03.114Z,11.96
2019-03-30T01:29:04.459Z,11.90
2019-03-30T02:31:06.853Z,11.22
2019-03-30T02:36:08.818Z,11.01
2019-03-30T02:41:10.894Z,10.57
2019-03-30T02:46:12.228Z,10.42
2019-03-30T02:51:13.558Z,10.34
2019-03-30T02:56:14.902Z,10.38
2019-03-30T04:04:37.739Z,9.55
2019-03-30T04:09:39.022Z,9.46
2019-03-30T04:14:40.319Z,9.52
2019-03-30T04:19:41.650Z,9.59
2019-03-30T04:24:42.973Z,9.57
2019-03-30T04:29:44.310Z,9.56
2019-03-30T06:03:29.915Z,9.79
2019-03-30T06:08:31.917Z,9.89
2019-03-30T06:13:33.212Z,10.02
2019-03-30T06:18:34.498Z,10.20
2019-03-30T06:23:35.792Z,10.36
2019-03-30T06:28:37.225Z,10.52
2019-03-30T06:33:38.485Z,10.77
2019-03-30T06:38:39.803Z,11.01
2019-03-30T06:43:41.162Z,11.19
2019-03-30T06:48:42.450Z,11.24
2019-03-30T06:53:43.762Z,11.24
2019-03-30T06:58:45.065Z,11.29
2019-03-30T07:03:54.374Z,11.48
2019-03-30T07:08:55.685Z,11.56
2019-03-30T07:13:56.998Z,11.86
2019-03-30T07:19:01.137Z,12.10
2019-03-30T07:24:02.522Z,12.41
2019-03-30T07:29:03.836Z,12.64
2019-03-30T07:34:05.212Z,12.79
2019-03-30T07:39:07.261Z,12.94
2019-03-30T07:44:08.578Z,13.03
2019-03-30T07:49:09.879Z,13.08
2019-03-30T07:54:12.229Z,13.07
2019-03-30T07:59:13.703Z,12.98
2019-03-30T08:04:15.659Z,13.14
2019-03-30T08:09:17.686Z,13.12
2019-03-30T08:14:18.991Z,12.96
2019-03-30T08:19:21.908Z,13.49
2019-03-30T08:24:22.402Z,13.68
2019-03-30T08:29:23.864Z,13.95
2019-03-30T08:34:25.196Z,13.94
2019-03-30T08:39:26.478Z,14.13
2019-03-30T08:44:27.809Z,14.30
2019-03-30T08:49:29.904Z,14.53
2019-03-30T08:54:40.591Z,14.40
2019-03-30T08:59:41.952Z,14.78
2019-03-30T09:04:44.366Z,14.97
2019-03-30T09:09:46.676Z,15.13
2019-03-30T09:14:52.476Z,15.15
2019-03-30T09:19:53.943Z,15.37
2019-03-30T09:24:55.980Z,15.50
2019-03-30T09:29:57.293Z,15.16
2019-03-30T09:34:59.337Z,15.74
2019-03-30T09:40:00.748Z,15.49
2019-03-30T09:45:02.111Z,15.72
2019-03-30T09:50:05.582Z,15.69
2019-03-30T09:55:06.961Z,16.01
2019-03-30T10:00:08.344Z,16.02
2019-03-30T10:05:13.469Z,15.95
2019-03-30T10:10:15.637Z,16.45
2019-03-30T10:15:17.147Z,16.67
2019-03-30T10:20:19.277Z,16.38
2019-03-30T10:25:20.607Z,16.12
2019-03-30T10:30:24.098Z,16.84
2019-03-30T10:35:27.785Z,17.03
2019-03-30T10:40:29.104Z,17.07
2019-03-30T10:45:31.191Z,17.03
2019-03-30T10:50:32.464Z,17.56
2019-03-30T10:55:33.801Z,17.70
2019-03-30T11:00:35.933Z,17.17
2019-03-30T11:05:37.233Z,17.03
2019-03-30T11:10:39.208Z,17.55
2019-03-30T11:15:40.560Z,17.07
2019-03-30T11:20:41.837Z,17.76
2019-03-30T11:25:43.134Z,17.37
2019-03-30T11:30:44.436Z,17.68
2019-03-30T11:35:45.704Z,17.72
2019-03-30T11:40:46.970Z,18.29
2019-03-30T11:45:48.256Z,18.40
2019-03-30T11:50:49.580Z,18.06
2019-03-30T11:55:50.922Z,18.62
2019-03-30T12:00:52.248Z,18.46
2019-03-30T12:05:53.609Z,19.22
2019-03-30T12:10:54.906Z,19.54
2019-03-30T12:15:56.936Z,19.70
2019-03-30T12:20:58.231Z,19.16
2019-03-30T12:26:00.264Z,19.36
2019-03-30T12:31:01.746Z,19.88
2019-03-30T12:36:03.049Z,20.11
2019-03-30T12:41:05.093Z,20.64
2019-03-30T12:46:06.428Z,21.14
2019-03-30T12:51:07.740Z,20.56
2019-03-30T12:56:12.375Z,21.31
2019-03-30T13:01:22.025Z,21.87
2019-03-30T13:06:23.488Z,22.32
2019-03-30T13:11:25.260Z,22.88
2019-03-30T13:16:26.950Z,23.10
2019-03-30T13:21:32.038Z,23.88
2019-03-30T13:26:33.443Z,22.76
2019-03-30T13:31:34.955Z,22.83
2019-03-30T13:36:39.110Z,23.03
2019-03-30T13:41:42.454Z,23.13
2019-03-30T13:46:45.887Z,23.54
2019-03-30T13:51:47.192Z,24.95
2019-03-30T13:56:48.512Z,24.89
2019-03-30T14:01:49.960Z,24.37
2019-03-30T14:06:51.406Z,23.50
2019-03-30T14:11:52.736Z,24.52
2019-03-30T14:16:54.839Z,25.11
2019-03-30T14:21:56.170Z,25.65
2019-03-30T14:26:57.539Z,25.08
2019-03-30T14:31:59.703Z,25.22
2019-03-30T14:37:01.053Z,26.50
2019-03-30T14:42:02.439Z,26.98
2019-03-30T14:47:03.758Z,27.88
2019-03-30T14:52:05.064Z,28.55
2019-03-30T14:57:06.400Z,28.77
2019-03-30T15:02:07.785Z,29.58
2019-03-30T15:07:09.184Z,29.06
2019-03-30T15:12:10.593Z,30.07
2019-03-30T15:17:12.035Z,32.26
2019-03-30T15:22:13.465Z,31.47
2019-03-30T15:27:14.766Z,30.80
2019-03-30T15:32:16.076Z,31.54
2019-03-30T15:37:17.564Z,30.99
2019-03-30T15:42:20.159Z,30.16
2019-03-30T15:47:21.600Z,28.31
2019-03-30T15:52:22.951Z,27.09
2019-03-30T15:57:25.471Z,27.86
2019-03-30T16:02:26.304Z,27.58
2019-03-30T16:07:27.725Z,28.06
2019-03-30T16:12:31.672Z,28.10
2019-03-30T16:17:33.146Z,27.66
2019-03-30T16:22:36.571Z,27.18
2019-03-30T16:27:39.439Z,26.71
2019-03-30T16:32:39.319Z,25.68
2019-03-30T16:37:40.690Z,25.50
2019-03-30T16:42:41.995Z,25.25
2019-03-30T16:47:43.308Z,24.53
2019-03-30T16:52:44.713Z,25.00
2019-03-30T16:57:46.061Z,25.65
2019-03-30T17:02:47.381Z,26.36
2019-03-30T17:07:48.837Z,26.65
2019-03-30T17:12:50.160Z,26.51
2019-03-30T17:17:51.495Z,25.88
2019-03-30T17:22:52.795Z,25.00
2019-03-30T17:27:58.507Z,24.55
2019-03-30T17:32:56.176Z,24.18
2019-03-30T17:38:03.180Z,24.03
2019-03-30T17:43:04.477Z,23.87
2019-03-30T17:48:05.813Z,23.67
2019-03-30T17:53:07.147Z,23.45
2019-03-30T17:58:13.305Z,23.30
2019-03-30T18:03:09.808Z,23.06
2019-03-30T18:08:11.124Z,22.98
2019-03-30T18:13:20.286Z,22.78
2019-03-30T18:18:24.949Z,22.50
2019-03-30T18:23:26.245Z,22.51
2019-03-30T18:28:27.796Z,22.35
2019-03-30T18:33:28.884Z,22.21
2019-03-30T18:38:32.214Z,22.18
2019-03-30T18:43:34.270Z,22.00
2019-03-30T18:48:35.581Z,21.91
2019-03-30T18:53:36.935Z,21.75
2019-03-30T18:58:41.991Z,21.68
2019-03-30T19:03:39.592Z,21.63
2019-03-30T19:08:40.938Z,21.56
2019-03-30T19:13:42.249Z,21.46
2019-03-30T19:18:43.556Z,21.36
2019-03-30T19:23:44.860Z,21.22
2019-03-30T19:28:56.138Z,21.04
2019-03-30T19:33:48.216Z,20.42
2019-03-30T19:38:49.531Z,20.34
2019-03-30T19:43:50.971Z,20.50
2019-03-30T19:48:53.121Z,20.53
2019-03-30T19:53:54.423Z,20.40
2019-03-30T19:59:09.792Z,20.34
2019-03-30T20:03:57.782Z,20.24
2019-03-30T20:08:59.842Z,20.09
2019-03-30T20:14:01.156Z,20.06
2019-03-30T20:19:11.949Z,19.99
2019-03-30T20:24:03.877Z,19.79
2019-03-30T20:29:05.212Z,19.63
2019-03-30T20:34:07.264Z,19.50
2019-03-30T20:39:08.621Z,19.32
2019-03-30T20:44:09.932Z,19.22
2019-03-30T20:49:11.975Z,19.12
2019-03-30T20:54:13.261Z,19.08
2019-03-30T20:59:15.300Z,18.89
2019-03-30T21:04:16.580Z,18.78
2019-03-30T21:09:17.865Z,18.66
2019-03-30T21:14:19.903Z,18.51
2019-03-30T21:19:21.217Z,18.39
2019-03-30T21:24:23.247Z,18.28
2019-03-30T21:29:24.550Z,18.15
2019-03-30T21:34:25.863Z,18.04
2019-03-30T21:39:27.145Z,17.83
2019-03-30T21:44:28.483Z,17.74
2019-03-30T21:49:31.098Z,17.64
2019-03-30T21:54:31.119Z,17.58
2019-03-30T21:59:32.393Z,17.47
2019-03-30T22:04:33.698Z,17.33
2019-03-30T22:09:35.004Z,17.21
2019-03-30T22:14:36.334Z,17.10
2019-03-30T22:19:38.364Z,17.01
2019-03-30T22:24:39.703Z,16.84
2019-03-30T22:29:40.997Z,16.74
2019-03-30T22:34:42.284Z,16.66
2019-03-30T22:39:43.604Z,16.54
2019-03-30T22:44:44.904Z,16.43
2019-03-30T22:49:46.214Z,16.33
2019-03-30T22:54:47.497Z,16.19
2019-03-30T22:59:52.074Z,16.05
2019-03-30T23:30:53.142Z,15.34
2019-03-30T23:35:40.087Z,15.24
2019-03-30T23:40:41.412Z,15.16
2019-03-30T23:45:42.725Z,15.19
2019-03-30T23:50:44.793Z,15.21
2019-03-30T23:55:46.829Z,15.23
